Terminal Aerodrome Forecast
Issued by NWS

Home | Current Version | Previous Version | Text Only | Print | Product List | Glossary On
Versions: 1 2 3 4 5 6 7 8 9 10 11 12 13 14 15 16 17
000
FTUS43 KMQT 281730
TAFSAW
TAF
KSAW 281730Z 2818/2918 04012G18KT P6SM VCSH BKN015
     FM282000 04012G18KT P6SM BKN025
     FM290000 02008KT P6SM BKN035
     FM290100 02007KT P6SM BKN060
     FM290200 02006KT P6SM SCT080=

USA.gov is the U.S. government's official web portal to all federal, state and local government web resources and services.